South Daytona, FL

12:33 PM EST on March 06, 2015 (GMT -0500)
Daytona Beach International | Change Station
CLOSE
Current Station
Airport
Location: Daytona Beach,
Elevation: 33 ft
Nearby Weather Stations

Elev 33 ft 29.18 °N, 81.06 °W | Updated 40 minutes ago

Fog
Fog
59 °F
Feels Like 59 °F
N
9
Wind Variable Wind from North

Today
High -- | Low -- °F
--% Chance of Precip.
Yesterday
High -- | Low -- °F
Precip. -- in
6:44 AM 6:26 PM
Full, 99% visible
Pressure 30.27 in
Visibility 2.5 miles
Clouds Overcast 600 ft
Dew Point 55 °F
Humidity 87%
Rainfall 0.00 in
Snow Depth Not available.
UV 3 out of 12
Pollen 9.60 out of 12
Air Quality Not available.
Flu Activity Not available.
METAR KDAB 061653Z 36008KT 2 1/2SM OVC006 15/13 A3027 RMK AO2 SFC VIS 9 SLP250 T01500128

More Conditions Fewer Conditions

Pressure 30.27 in
Visibility 2.5 miles
Clouds Overcast 600 ft
Dew Point 55 °F
Humidity 87%
Rainfall 0.00 in
Snow Depth Not available.
UV 3 out of 12
Pollen 9.60 out of 12
Air Quality Not available.
Flu Activity Not available.
METAR KDAB 061653Z 36008KT 2 1/2SM OVC006 15/13 A3027 RMK AO2 SFC VIS 9 SLP250 T01500128

More Conditions Fewer Conditions

10-Day Weather Forecast

Almanac

Astronomy

Mar. 06, 2015 Rise Set
Actual Time
Civil Twilight
Nautical Twilight
Astronomical Twilight
Moon
Length of Visible Light
Length of Day
Tomorrow will be .
, % of the Moon is Illuminated

Today's Extremes

State Highs State Lows

Community

WunderPhotos

Upload Photos

1,803,345 photos uploaded!

WunderBlogs® & News

Nearby

Air Quality

  Air Quality AQ Index Pollutant
Not available.

Snow Depth

Station Depth Elevation

Earthquake Activity

City Distance Mag. Time & Date
Minimum magnitude displayed is 2.5.

Coastal Water Temperatures

Place Temperature

Nearby Weather Stations